Mason City Municipal Airport
KMCW : now visible

Airfield :











YOU CAN JOIN US ON...

 
LOGIN :

Register | Disclaimer

   EN    FR    IT 

 









Legend :    VFR   Marginal VFR   IFR   Intensive IFR   Very Intensive IFR
Visi :
Ceiling :
>= 8 km
>= 3000ft
5 to 8 km
1000 to 3000 ft
1500m to 5 km
500 to 1000 ft
800 to 1500m
200 to 500 ft
< 800m
< 200 ft
Symbols :   Thunderstorms  Fog  Heavy snow  Heavy precipitations  Wind > 20 kt






- Airport Elevation : 1213 ft


KMCW - Mason City Municipal

CURRENT METAR :
  • 011753Z AUTO 14017G25KT 10SM OVC041 08/04 A2996 RMK AO2 PK WND 15026/1740 SLP151 60006 T00780039 10078 20011 58019

EXPIRED METARs :
  • 011653Z AUTO 14018G24KT 10SM OVC047 05/03 A2999 RMK AO2 SLP159 T00500028
  • 011608Z AUTO 14013G22KT 10SM SCT007 OVC048 04/02 A3001 RMK AO2 T00390022
  • 011553Z AUTO 14014G21KT 10SM BKN007 OVC050 03/02 A3001 RMK AO2 SLP167 T00330017

TAF KMCW
Valid from the 01 at 18:00 until the 02 at 18:00 UTC


011721Z 0118/0218 14014KT P6SM BKN050
FM011900 14013KT P6SM FEW030
FM020200 13012KT P6SM SCT200
FM021400 14014KT P6SM BKN045
FM021600 15015KT P6SM BKN020



MET'MAP, your aeronautical weather chart ! - Copyright ORBIFLY December 2007 - Disclaimer

ORBIFLY MET'MAP TEAM :

Programming & Development : Alexandra Zaïnal
Concept & original design : Baudouin d'Aumeries
Assistance for programming : Marc-Olivier Méhu
Technical & hardware support : Manuel Goepfert

Contact : metmap@orbifly.com




SOURCES & CREDITS :

   NOAA       Earth
Advisory